Time;durP1;ratioP1;P1;durP2;ratioP2;P2;SDS_P1;SDS_P2;PMS_P1;PMS_P2;Temp;Humidity;BMP_temperature;BMP_pressure;BME280_temperature;BME280_humidity;BME280_pressure;Samples;Min_cycle;Max_cycle;Signal;HPM_P1;HPM_P2
2023/11/27 00:01:29;;;;;;;15.38;7.35;;;3.10;99.90;;;;;;5058843;28;20025;-91
2023/11/27 00:03:55;;;;;;;15.75;7.97;;;3.20;99.90;;;;;;5038868;28;20029;-92
2023/11/27 00:06:21;;;;;;;10.38;7.55;;;3.10;99.90;;;;;;5056669;28;20048;-91
2023/11/27 00:08:46;;;;;;;16.45;8.20;;;3.10;99.90;;;;;;5058362;28;20013;-92
2023/11/27 00:11:12;;;;;;;15.65;8.00;;;3.10;99.90;;;;;;5055832;28;20021;-92
2023/11/27 00:13:38;;;;;;;12.05;7.47;;;3.00;99.90;;;;;;5058026;28;20032;-91
2023/11/27 00:16:05;;;;;;;13.15;7.13;;;3.00;99.90;;;;;;5059766;28;20044;-91
2023/11/27 00:18:31;;;;;;;10.13;6.38;;;3.10;99.90;;;;;;5057700;28;20052;-91
2023/11/27 00:20:57;;;;;;;10.15;6.78;;;3.10;99.90;;;;;;5058557;28;20025;-93
2023/11/27 00:23:23;;;;;;;12.13;6.47;;;3.10;99.90;;;;;;5060388;28;20036;-93
2023/11/27 00:25:48;;;;;;;9.88;6.00;;;3.10;99.90;;;;;;5052072;28;20079;-92
2023/11/27 00:28:14;;;;;;;12.25;6.63;;;3.00;99.90;;;;;;5060342;28;20021;-92
2023/11/27 00:30:40;;;;;;;11.90;6.13;;;3.00;99.90;;;;;;5060869;28;20029;-93
2023/11/27 00:33:06;;;;;;;10.95;6.70;;;3.00;99.90;;;;;;5058520;28;20466;-91
2023/11/27 00:35:32;;;;;;;8.20;6.45;;;3.10;99.90;;;;;;5060189;28;20079;-91
2023/11/27 00:37:57;;;;;;;11.10;7.00;;;3.10;99.90;;;;;;5040640;28;20028;-92
2023/11/27 00:40:26;;;;;;;10.25;6.30;;;3.10;99.90;;;;;;5053877;28;20021;-94
2023/11/27 00:42:51;;;;;;;12.02;5.93;;;3.10;99.90;;;;;;5062327;28;20029;-93
2023/11/27 00:45:17;;;;;;;13.15;6.38;;;3.00;99.90;;;;;;5045573;28;20027;-92
2023/11/27 00:47:46;;;;;;;9.68;6.63;;;3.00;99.90;;;;;;5062796;28;20060;-90
2023/11/27 00:50:12;;;;;;;10.15;6.20;;;3.00;99.90;;;;;;5062591;28;20040;-93
2023/11/27 00:52:37;;;;;;;12.23;7.10;;;3.00;99.90;;;;;;5061941;28;20029;-91
2023/11/27 00:55:03;;;;;;;13.27;6.78;;;3.00;99.90;;;;;;5054645;28;20021;-92
2023/11/27 00:57:30;;;;;;;9.32;5.95;;;3.10;99.90;;;;;;5061174;28;20060;-92
2023/11/27 00:59:56;;;;;;;10.98;6.30;;;3.10;99.90;;;;;;5061232;28;20025;-93
2023/11/27 01:02:22;;;;;;;9.18;6.80;;;3.10;99.90;;;;;;5062046;28;20076;-91
2023/11/27 01:04:47;;;;;;;8.18;6.95;;;3.10;99.90;;;;;;5062180;28;20035;-92
2023/11/27 01:07:13;;;;;;;9.70;6.28;;;3.10;99.90;;;;;;5062376;28;20643;-91
2023/11/27 01:09:39;;;;;;;11.77;6.50;;;3.10;99.90;;;;;;5062325;28;20024;-92
2023/11/27 01:12:06;;;;;;;9.32;6.18;;;3.10;99.90;;;;;;5061767;28;20029;-92
2023/11/27 01:14:32;;;;;;;13.52;7.13;;;3.10;99.90;;;;;;5061390;28;20029;-91
2023/11/27 01:16:58;;;;;;;10.35;6.80;;;3.20;99.90;;;;;;5060247;28;20021;-91
2023/11/27 01:19:23;;;;;;;14.15;7.25;;;3.10;99.90;;;;;;5043513;28;20123;-95
2023/11/27 01:21:49;;;;;;;10.68;6.65;;;3.10;99.90;;;;;;5043626;28;20031;-92
2023/11/27 01:24:15;;;;;;;12.15;7.57;;;3.20;99.90;;;;;;5061505;28;20053;-91
2023/11/27 01:26:44;;;;;;;11.40;6.68;;;3.10;99.90;;;;;;5063612;28;20035;-92
2023/11/27 01:29:10;;;;;;;15.73;7.35;;;3.10;99.90;;;;;;5062005;28;20028;-92
2023/11/27 01:31:36;;;;;;;10.57;5.45;;;3.10;99.90;;;;;;5061730;28;20104;-92
2023/11/27 01:34:01;;;;;;;11.23;6.65;;;3.10;99.90;;;;;;5061866;28;20044;-91
2023/11/27 01:36:27;;;;;;;11.65;6.93;;;3.10;99.90;;;;;;5062843;28;20048;-92
2023/11/27 01:38:53;;;;;;;14.00;6.35;;;3.10;99.90;;;;;;5060627;28;20120;-91
2023/11/27 01:41:19;;;;;;;10.18;7.05;;;3.10;99.90;;;;;;5057762;28;20020;-92
2023/11/27 01:43:45;;;;;;;12.98;6.05;;;3.10;99.90;;;;;;5061740;28;20108;-91
2023/11/27 01:46:25;;;;;;;11.23;6.13;;;3.10;99.90;;;;;;5062738;28;20051;-91
2023/11/27 01:48:53;;;;;;;11.40;5.93;;;3.10;99.90;;;;;;5061593;28;20055;-91
2023/11/27 01:51:24;;;;;;;9.98;6.03;;;3.00;99.90;;;;;;5051981;28;20029;-92
2023/11/27 01:53:52;;;;;;;8.90;6.57;;;3.00;99.90;;;;;;5059929;28;20033;-93
2023/11/27 01:56:19;;;;;;;;;;;3.00;99.90;;;;;;5061220;28;20652;-92
2023/11/27 01:58:46;;;;;;;9.00;6.53;;;3.00;99.90;;;;;;5059521;28;19934;-91
2023/11/27 02:01:11;;;;;;;11.38;6.93;;;3.10;99.90;;;;;;5061573;28;20025;-92
2023/11/27 02:03:37;;;;;;;7.47;5.95;;;3.00;99.90;;;;;;5061370;28;20499;-92
2023/11/27 02:06:03;;;;;;;11.85;6.22;;;3.10;99.90;;;;;;5061403;28;20035;-92
2023/11/27 02:08:31;;;;;;;9.60;5.90;;;3.10;99.90;;;;;;5060636;28;20105;-92
2023/11/27 02:10:57;;;;;;;8.77;6.00;;;3.10;99.90;;;;;;5060766;28;20645;-91
2023/11/27 02:13:25;;;;;;;10.50;6.50;;;3.10;99.90;;;;;;5042605;28;20124;-92
2023/11/27 02:15:52;;;;;;;9.23;6.57;;;3.10;99.90;;;;;;5062339;28;20059;-92
2023/11/27 02:18:19;;;;;;;9.88;6.35;;;3.10;99.90;;;;;;5062441;28;20017;-91
2023/11/27 02:20:45;;;;;;;10.98;6.05;;;3.20;99.90;;;;;;5062277;28;20028;-93
2023/11/27 02:23:15;;;;;;;7.88;5.20;;;3.20;99.90;;;;;;5063521;28;20025;-92
2023/11/27 02:25:42;;;;;;;8.88;5.95;;;3.20;99.90;;;;;;5062284;28;20033;-91
2023/11/27 02:28:07;;;;;;;8.75;5.13;;;3.10;99.90;;;;;;5043917;28;20044;-92
2023/11/27 02:30:36;;;;;;;11.35;6.60;;;3.10;99.90;;;;;;5062157;28;20024;-92
2023/11/27 02:33:02;;;;;;;9.23;5.63;;;3.10;99.90;;;;;;5062848;28;20612;-92
2023/11/27 02:35:28;;;;;;;7.05;5.68;;;3.10;99.90;;;;;;5060029;28;20076;-93
2023/11/27 02:37:53;;;;;;;9.27;5.45;;;3.10;99.90;;;;;;5061642;28;20028;-92
2023/11/27 02:40:19;;;;;;;8.75;4.15;;;3.10;99.90;;;;;;5061660;28;20059;-92
2023/11/27 02:42:45;;;;;;;9.15;6.18;;;3.10;99.90;;;;;;5042562;28;20086;-91
2023/11/27 02:45:11;;;;;;;9.80;5.03;;;3.10;99.90;;;;;;5057394;28;20025;-92
2023/11/27 02:47:38;;;;;;;7.47;4.97;;;3.00;99.90;;;;;;5062249;28;20040;-94
2023/11/27 02:50:05;;;;;;;9.45;5.47;;;3.10;99.90;;;;;;5043803;28;20032;-92
2023/11/27 02:52:31;;;;;;;10.80;5.40;;;3.10;99.90;;;;;;5062574;28;20391;-93
2023/11/27 02:54:57;;;;;;;8.65;4.43;;;3.00;99.90;;;;;;5074317;28;20045;-93
2023/11/27 02:57:23;;;;;;;8.13;4.75;;;3.00;99.90;;;;;;5059770;28;20025;-93
2023/11/27 02:59:52;;;;;;;7.85;5.68;;;3.00;99.90;;;;;;5060852;28;20028;-92
2023/11/27 03:02:18;;;;;;;9.45;5.22;;;3.00;99.90;;;;;;5061479;28;20021;-92
2023/11/27 03:04:44;;;;;;;7.43;5.07;;;3.00;99.90;;;;;;5044973;28;20029;-92
2023/11/27 03:07:10;;;;;;;6.10;4.93;;;3.00;99.90;;;;;;5061044;28;20037;-91
2023/11/27 03:09:38;;;;;;;6.45;5.35;;;3.00;99.90;;;;;;5060289;28;20043;-93
2023/11/27 03:12:05;;;;;;;9.00;5.78;;;2.90;99.90;;;;;;5059998;28;20501;-92
2023/11/27 03:14:30;;;;;;;9.05;5.15;;;2.90;99.90;;;;;;5060413;28;20037;-92
2023/11/27 03:16:56;;;;;;;7.25;5.47;;;3.00;99.90;;;;;;5060149;28;20410;-93
2023/11/27 03:19:22;;;;;;;8.38;6.13;;;2.90;99.90;;;;;;5060802;28;20104;-93
2023/11/27 03:21:48;;;;;;;8.38;5.03;;;2.90;99.90;;;;;;5060011;28;20481;-91
2023/11/27 03:24:14;;;;;;;9.60;4.70;;;2.90;99.90;;;;;;5061224;28;20057;-91
2023/11/27 03:26:40;;;;;;;8.05;4.78;;;2.90;99.90;;;;;;5060742;28;20431;-92
2023/11/27 03:29:06;;;;;;;10.07;7.07;;;2.80;99.90;;;;;;5059861;28;20029;-93
2023/11/27 03:31:32;;;;;;;8.90;6.75;;;2.80;99.90;;;;;;5040875;28;20083;-91
2023/11/27 03:33:58;;;;;;;8.93;5.63;;;2.80;99.90;;;;;;5036900;28;20021;-92
2023/11/27 03:36:24;;;;;;;11.05;5.55;;;2.80;99.90;;;;;;5060155;28;20082;-91
2023/11/27 03:38:49;;;;;;;11.00;5.70;;;2.80;99.90;;;;;;5042522;28;20033;-92
2023/11/27 03:41:19;;;;;;;8.60;5.70;;;2.80;99.90;;;;;;5060363;28;20467;-91
2023/11/27 03:43:45;;;;;;;9.73;6.28;;;2.80;99.90;;;;;;5060177;28;20021;-92
2023/11/27 03:46:10;;;;;;;9.93;6.25;;;2.80;99.90;;;;;;5058775;28;20021;-92
2023/11/27 03:48:38;;;;;;;9.60;6.53;;;2.80;99.90;;;;;;5039744;28;20116;-91
2023/11/27 03:51:05;;;;;;;9.60;6.80;;;2.80;99.90;;;;;;5041066;28;20033;-92
2023/11/27 03:53:31;;;;;;;10.68;6.38;;;2.80;99.90;;;;;;5059447;28;20053;-92
2023/11/27 03:55:56;;;;;;;8.80;5.85;;;2.80;99.90;;;;;;5060093;28;20028;-92
2023/11/27 03:58:22;;;;;;;8.63;6.18;;;2.90;99.90;;;;;;5059945;28;20025;-92
2023/11/27 04:00:48;;;;;;;11.10;6.38;;;2.90;99.90;;;;;;5059938;28;20059;-92
2023/11/27 04:03:17;;;;;;;12.38;6.75;;;2.90;99.90;;;;;;5053161;28;20021;-92
2023/11/27 04:05:43;;;;;;;10.38;6.45;;;2.90;99.90;;;;;;5061190;28;20048;-92
2023/11/27 04:08:09;;;;;;;12.27;6.47;;;2.90;99.90;;;;;;5061806;28;20028;-92
2023/11/27 04:10:34;;;;;;;13.23;6.78;;;2.90;99.90;;;;;;5060187;28;20025;-92
2023/11/27 04:13:00;;;;;;;11.00;7.32;;;2.90;99.90;;;;;;5046684;28;20055;-92
2023/11/27 04:15:27;;;;;;;14.43;6.68;;;2.90;99.90;;;;;;5045029;28;20064;-92
2023/11/27 04:17:53;;;;;;;10.82;6.55;;;2.90;99.90;;;;;;5064440;28;20013;-92
2023/11/27 04:20:20;;;;;;;10.40;6.57;;;2.90;99.90;;;;;;5065274;28;20052;-92
2023/11/27 04:22:46;;;;;;;12.88;7.55;;;2.90;99.90;;;;;;5055321;28;20032;-93
2023/11/27 04:25:12;;;;;;;9.55;6.22;;;2.80;99.90;;;;;;5046935;28;20052;-92
2023/11/27 04:27:38;;;;;;;10.20;7.72;;;2.90;99.90;;;;;;5063374;28;20032;-92
2023/11/27 04:30:05;;;;;;;10.13;7.75;;;2.90;99.90;;;;;;5044134;28;20036;-92
2023/11/27 04:32:35;;;;;;;12.90;6.70;;;2.90;99.90;;;;;;5062145;28;20116;-92
2023/11/27 04:35:04;;;;;;;11.02;6.47;;;2.80;99.90;;;;;;5055668;28;20037;-92
2023/11/27 04:37:30;;;;;;;9.20;6.82;;;2.80;99.90;;;;;;5060481;28;20025;-92
2023/11/27 04:39:56;;;;;;;11.15;6.25;;;2.80;99.90;;;;;;5062893;28;20108;-91
2023/11/27 04:42:25;;;;;;;11.50;7.45;;;2.80;99.90;;;;;;5062573;28;20815;-91
2023/11/27 04:44:51;;;;;;;11.68;7.13;;;2.80;99.90;;;;;;5060578;28;20075;-93
2023/11/27 04:47:16;;;;;;;11.40;7.30;;;2.80;99.90;;;;;;5059697;28;20025;-91
2023/11/27 04:49:42;;;;;;;12.45;7.72;;;2.80;99.90;;;;;;5059134;28;20036;-93
2023/11/27 04:52:11;;;;;;;10.15;7.88;;;2.80;99.90;;;;;;5061100;28;20025;-91
2023/11/27 04:54:38;;;;;;;14.07;7.40;;;2.70;99.90;;;;;;5034410;28;20108;-92
2023/11/27 04:57:07;;;;;;;11.57;6.65;;;2.80;99.90;;;;;;5039321;28;20023;-93
2023/11/27 04:59:35;;;;;;;8.00;5.68;;;2.80;99.90;;;;;;5043937;28;20031;-91
2023/11/27 05:02:01;;;;;;;14.15;7.50;;;2.80;99.90;;;;;;5061988;28;20017;-91
2023/11/27 05:04:27;;;;;;;11.77;6.72;;;2.80;99.90;;;;;;5062259;28;20097;-93
2023/11/27 05:06:52;;;;;;;9.82;6.22;;;2.70;99.90;;;;;;5061252;28;20550;-92
2023/11/27 05:09:18;;;;;;;10.10;6.47;;;2.70;99.90;;;;;;5061920;28;20048;-90
2023/11/27 05:11:44;;;;;;;9.50;7.53;;;2.80;99.90;;;;;;5061043;28;20036;-91
2023/11/27 05:14:09;;;;;;;12.35;6.43;;;2.80;99.90;;;;;;5063774;28;20016;-93
2023/11/27 05:16:35;;;;;;;9.55;6.22;;;2.80;99.90;;;;;;5045621;28;20119;-91
2023/11/27 05:19:01;;;;;;;12.07;6.53;;;2.80;99.90;;;;;;5061028;28;20027;-92
2023/11/27 05:21:27;;;;;;;10.48;6.35;;;2.80;99.90;;;;;;5040856;28;20025;-93
2023/11/27 05:23:52;;;;;;;12.65;8.30;;;2.80;99.90;;;;;;5056574;28;20411;-91
2023/11/27 05:26:18;;;;;;;15.80;8.18;;;2.70;99.90;;;;;;5058427;28;20033;-91
2023/11/27 05:28:47;;;;;;;13.48;7.88;;;2.70;99.90;;;;;;5046778;28;20521;-92
2023/11/27 05:31:14;;;;;;;;;;;2.70;99.90;;;;;;5062436;28;20040;-93
2023/11/27 05:33:40;;;;;;;;;;;2.70;99.90;;;;;;5062853;28;19920;-93
2023/11/27 05:36:09;;;;;;;15.57;12.00;;;2.70;99.90;;;;;;5043994;28;19905;-92
2023/11/27 05:38:35;;;;;;;12.77;8.23;;;2.80;99.90;;;;;;5062345;28;20017;-95
2023/11/27 05:41:01;;;;;;;13.57;6.03;;;2.80;99.90;;;;;;5061618;28;20102;-93
2023/11/27 05:43:31;;;;;;;8.50;6.47;;;2.80;99.90;;;;;;5043891;28;20116;-94
2023/11/27 05:45:57;;;;;;;10.82;6.22;;;2.80;99.90;;;;;;5056607;28;20027;-93
2023/11/27 05:48:22;;;;;;;7.40;5.85;;;2.80;99.90;;;;;;5057407;28;20045;-92
2023/11/27 05:50:48;;;;;;;7.82;6.43;;;2.80;99.90;;;;;;5062576;28;20017;-92
2023/11/27 05:53:14;;;;;;;11.55;8.05;;;2.90;99.90;;;;;;5053465;28;20115;-93
2023/11/27 05:55:40;;;;;;;12.50;6.47;;;2.90;99.90;;;;;;5053338;28;20056;-92
2023/11/27 05:58:09;;;;;;;13.55;6.97;;;2.80;99.90;;;;;;5063155;28;20017;-92
2023/11/27 06:00:35;;;;;;;9.85;6.90;;;2.90;99.90;;;;;;5045909;28;20036;-93
2023/11/27 06:03:00;;;;;;;8.15;6.53;;;2.90;99.90;;;;;;5038064;28;20021;-93
2023/11/27 06:05:26;;;;;;;9.23;7.03;;;2.90;99.90;;;;;;5062621;28;20032;-93
2023/11/27 06:07:52;;;;;;;9.88;7.18;;;2.90;99.90;;;;;;5063406;28;20051;-93
2023/11/27 06:10:18;;;;;;;9.57;5.63;;;2.90;99.90;;;;;;5063787;28;20029;-92
2023/11/27 06:12:44;;;;;;;12.32;7.13;;;2.90;99.90;;;;;;5059940;28;20085;-93
2023/11/27 06:15:14;;;;;;;8.82;6.75;;;3.00;99.90;;;;;;5038116;28;20134;-93
2023/11/27 06:17:41;;;;;;;9.40;7.15;;;2.90;99.90;;;;;;5059447;28;20026;-93
2023/11/27 06:20:09;;;;;;;12.23;7.50;;;2.90;99.90;;;;;;5041839;28;20088;-92
2023/11/27 06:22:36;;;;;;;10.10;6.28;;;2.90;99.90;;;;;;5045151;28;20027;-91
2023/11/27 06:25:02;;;;;;;9.00;6.03;;;3.00;99.90;;;;;;5072162;28;20155;-92
2023/11/27 06:27:28;;;;;;;10.82;5.63;;;2.90;99.90;;;;;;5062461;28;20400;-93
2023/11/27 06:29:54;;;;;;;9.68;6.55;;;2.90;99.90;;;;;;5061167;28;20025;-92
2023/11/27 06:32:23;;;;;;;12.95;6.32;;;2.90;99.90;;;;;;5061564;28;20028;-91
2023/11/27 06:34:52;;;;;;;9.43;7.43;;;2.90;99.90;;;;;;5058666;28;20080;-93
2023/11/27 06:37:18;;;;;;;13.32;5.90;;;2.90;99.90;;;;;;5046719;28;20140;-93
2023/11/27 06:39:50;;;;;;;10.93;7.38;;;2.90;99.90;;;;;;5028101;28;20049;-93
2023/11/27 06:42:31;;;;;;;11.50;6.60;;;2.90;99.90;;;;;;5042608;28;20104;-96
2023/11/27 06:44:57;;;;;;;10.85;5.93;;;2.90;99.90;;;;;;5050582;28;20028;-96
2023/11/27 06:47:37;;;;;;;11.73;6.75;;;2.90;99.90;;;;;;5047375;28;20033;-93
2023/11/27 06:50:03;;;;;;;9.93;5.45;;;2.90;99.90;;;;;;5045954;28;20029;-95
2023/11/27 06:52:36;;;;;;;13.15;6.85;;;3.00;99.90;;;;;;5051513;28;20032;-93
2023/11/27 06:55:02;;;;;;;9.60;5.68;;;3.00;99.90;;;;;;5032975;28;20533;-95
2023/11/27 06:57:27;;;;;;;10.90;6.22;;;3.00;99.90;;;;;;5048044;28;20029;-93
2023/11/27 07:00:05;;;;;;;9.60;7.43;;;3.00;99.90;;;;;;5045776;28;20033;-93
2023/11/27 07:02:31;;;;;;;8.98;6.82;;;3.00;99.90;;;;;;5047293;28;20033;-93
2023/11/27 07:05:06;;;;;;;9.73;7.20;;;3.00;99.90;;;;;;5047638;28;20485;-93
2023/11/27 07:07:34;;;;;;;12.80;5.85;;;3.00;99.90;;;;;;5049118;28;20130;-93
2023/11/27 07:10:07;;;;;;;;;;;3.00;99.90;;;;;;5027622;28;20048;-93
2023/11/27 07:12:32;;;;;;;7.07;5.70;;;3.00;99.90;;;;;;5030411;28;19916;-92
2023/11/27 07:14:59;;;;;;;10.90;6.38;;;3.00;99.90;;;;;;5047360;28;20025;-91
2023/11/27 07:17:24;;;;;;;9.25;6.10;;;3.00;99.90;;;;;;5040619;28;20025;-94
2023/11/27 07:19:50;;;;;;;8.15;5.72;;;3.00;99.90;;;;;;5064060;28;20013;-91
2023/11/27 07:22:20;;;;;;;10.32;6.35;;;3.00;99.90;;;;;;5059352;28;20013;-90
2023/11/27 07:24:50;;;;;;;7.55;5.35;;;3.00;99.90;;;;;;5051854;28;20021;-91
2023/11/27 07:27:15;;;;;;;9.43;5.20;;;3.00;99.90;;;;;;5039687;28;20025;-91
2023/11/27 07:29:41;;;;;;;7.72;5.50;;;3.10;99.90;;;;;;5053357;28;20168;-90
2023/11/27 07:32:09;;;;;;;9.15;5.57;;;3.00;99.90;;;;;;5054450;28;20024;-90
2023/11/27 07:34:40;;;;;;;8.52;5.10;;;3.10;99.90;;;;;;5053417;28;20031;-92
2023/11/27 07:37:15;;;;;;;9.43;6.13;;;3.10;99.90;;;;;;5055262;28;20025;-90
2023/11/27 07:39:40;;;;;;;;;;;3.10;99.90;;;;;;5036239;28;20055;-92
2023/11/27 07:42:06;;;;;;;5.78;5.00;;;3.20;99.90;;;;;;5055764;28;19905;-91
2023/11/27 07:44:38;;;;;;;6.75;6.05;;;3.20;99.90;;;;;;5055508;28;20113;-92
2023/11/27 07:47:04;;;;;;;10.02;5.50;;;3.20;99.90;;;;;;5056215;28;20025;-91
2023/11/27 07:49:30;;;;;;;9.95;5.65;;;3.20;99.90;;;;;;5056868;28;20025;-92
2023/11/27 07:51:58;;;;;;;7.43;5.53;;;3.20;99.90;;;;;;5060831;28;20021;-91
2023/11/27 07:54:23;;;;;;;10.25;5.43;;;3.20;99.90;;;;;;5062588;28;20029;-91
2023/11/27 07:56:57;;;;;;;9.00;5.45;;;3.20;99.90;;;;;;5043351;28;20071;-91
2023/11/27 07:59:25;;;;;;;12.35;5.45;;;3.30;99.90;;;;;;5042822;28;20558;-90
2023/11/27 08:01:56;;;;;;;9.23;5.50;;;3.30;99.90;;;;;;5060454;28;20027;-90
2023/11/27 08:04:24;;;;;;;9.10;5.18;;;3.30;99.90;;;;;;5043157;28;20029;-90
2023/11/27 08:06:50;;;;;;;8.57;7.00;;;3.40;99.90;;;;;;5042577;28;20078;-91
2023/11/27 08:09:15;;;;;;;8.32;5.45;;;3.30;99.90;;;;;;5060674;28;20092;-91
2023/11/27 08:11:45;;;;;;;5.82;4.13;;;3.40;99.90;;;;;;5042277;28;20522;-91
2023/11/27 08:14:13;;;;;;;7.43;4.95;;;3.40;99.90;;;;;;5058117;28;20025;-91
2023/11/27 08:16:52;;;;;;;8.60;5.18;;;3.40;99.90;;;;;;5042714;28;20443;-92
2023/11/27 08:19:20;;;;;;;9.80;5.15;;;3.40;99.90;;;;;;5041762;28;20028;-90
2023/11/27 08:21:46;;;;;;;8.65;5.32;;;3.50;99.90;;;;;;5060469;28;20487;-91
2023/11/27 08:24:13;;;;;;;8.45;5.55;;;3.50;99.90;;;;;;5055673;28;20037;-91
2023/11/27 08:26:49;;;;;;;7.72;5.32;;;3.50;99.90;;;;;;5059589;28;20021;-91
2023/11/27 08:29:21;;;;;;;5.82;5.13;;;3.60;99.90;;;;;;5057601;28;20054;-90
2023/11/27 08:32:00;;;;;;;7.43;5.20;;;3.70;99.90;;;;;;5041736;28;20032;-91
2023/11/27 08:34:29;;;;;;;7.93;4.97;;;3.60;99.90;;;;;;5040326;28;20112;-89
2023/11/27 08:36:59;;;;;;;6.95;5.18;;;3.70;99.90;;;;;;5059159;28;20017;-90
2023/11/27 08:39:25;;;;;;;8.13;5.10;;;3.70;99.90;;;;;;5058371;28;20090;-90
2023/11/27 08:41:51;;;;;;;8.07;5.03;;;3.70;99.90;;;;;;5035954;28;20025;-89
2023/11/27 08:44:18;;;;;;;5.90;5.30;;;3.70;99.90;;;;;;5042889;28;20399;-89
2023/11/27 08:46:46;;;;;;;7.43;4.35;;;3.70;99.90;;;;;;5042163;28;20033;-90
2023/11/27 08:49:12;;;;;;;6.10;5.22;;;3.70;98.60;;;;;;5042088;28;20029;-90
2023/11/27 08:51:47;;;;;;;6.07;5.47;;;3.70;99.90;;;;;;5059679;28;20021;-91
2023/11/27 08:54:13;;;;;;;8.30;5.50;;;3.70;99.80;;;;;;5059188;28;20499;-90
2023/11/27 08:56:47;;;;;;;7.13;4.60;;;3.90;99.90;;;;;;5041333;28;20094;-91
2023/11/27 08:59:13;;;;;;;8.73;4.53;;;3.90;99.20;;;;;;5041457;28;20047;-92
2023/11/27 09:01:40;;;;;;;5.47;4.97;;;3.90;98.90;;;;;;5059902;28;20025;-90
2023/11/27 09:04:06;;;;;;;7.38;4.38;;;3.90;98.70;;;;;;5041697;28;20040;-91
2023/11/27 09:06:32;;;;;;;6.10;4.65;;;3.90;98.10;;;;;;5041079;28;20040;-91
2023/11/27 09:09:00;;;;;;;5.50;4.07;;;4.00;98.30;;;;;;5040507;28;20078;-90
2023/11/27 09:11:26;;;;;;;5.28;4.30;;;3.90;97.40;;;;;;5059813;28;20044;-90
2023/11/27 09:13:52;;;;;;;9.27;4.45;;;4.00;98.10;;;;;;5060002;28;20057;-90
2023/11/27 09:16:20;;;;;;;5.82;4.55;;;4.10;99.20;;;;;;5042159;28;20029;-90
2023/11/27 09:18:46;;;;;;;4.97;3.78;;;4.10;97.90;;;;;;5059014;28;20025;-92
2023/11/27 09:21:32;;;;;;;6.90;4.68;;;4.10;97.90;;;;;;5060266;28;20040;-92
2023/11/27 09:24:00;;;;;;;4.80;3.47;;;4.20;97.30;;;;;;5058511;28;20025;-90
2023/11/27 09:26:28;;;;;;;7.00;4.22;;;4.20;97.00;;;;;;5040800;28;20049;-92
2023/11/27 09:28:59;;;;;;;4.68;4.03;;;4.30;96.20;;;;;;5055618;28;20759;-92
2023/11/27 09:31:29;;;;;;;4.20;3.80;;;4.30;96.80;;;;;;5060848;28;20039;-92
2023/11/27 09:33:54;;;;;;;6.68;4.18;;;4.40;95.00;;;;;;5054177;28;20052;-91
2023/11/27 09:36:26;;;;;;;5.18;2.55;;;4.40;93.20;;;;;;5060269;28;20498;-91
2023/11/27 09:38:55;;;;;;;5.45;3.80;;;4.50;93.50;;;;;;5041308;28;20025;-91
2023/11/27 09:41:21;;;;;;;5.82;3.50;;;4.50;92.00;;;;;;5040820;28;20021;-91
2023/11/27 09:43:47;;;;;;;4.68;3.70;;;4.60;93.60;;;;;;5058270;28;20039;-90
2023/11/27 09:46:21;;;;;;;7.22;3.95;;;4.60;92.90;;;;;;5040417;28;20021;-91
2023/11/27 09:48:52;;;;;;;3.58;2.53;;;4.60;91.90;;;;;;5057520;28;20048;-91
2023/11/27 09:51:20;;;;;;;4.30;3.25;;;4.60;91.40;;;;;;5057540;28;20497;-91
2023/11/27 09:53:52;;;;;;;5.82;2.67;;;4.60;91.30;;;;;;5039666;28;20037;-90
2023/11/27 09:56:27;;;;;;;5.97;3.50;;;4.70;91.70;;;;;;5058546;28;20100;-91
2023/11/27 09:58:59;;;;;;;4.32;2.92;;;4.70;91.00;;;;;;5058760;28;20032;-91
2023/11/27 10:01:35;;;;;;;4.45;3.05;;;4.70;90.00;;;;;;5032664;28;20017;-89
2023/11/27 10:04:07;;;;;;;3.95;2.83;;;4.80;89.20;;;;;;5057775;28;20032;-91
2023/11/27 10:06:35;;;;;;;4.28;2.65;;;4.80;90.70;;;;;;5056588;28;20309;-90
2023/11/27 10:09:03;;;;;;;4.20;3.10;;;4.80;89.40;;;;;;5058340;28;20047;-91
2023/11/27 10:11:33;;;;;;;4.70;2.70;;;4.80;90.60;;;;;;5040113;28;20031;-92
2023/11/27 10:14:08;;;;;;;4.40;2.72;;;4.80;89.10;;;;;;5039864;28;20495;-91
2023/11/27 10:16:39;;;;;;;3.97;2.97;;;4.90;89.40;;;;;;5057991;28;20040;-90
2023/11/27 10:19:16;;;;;;;5.15;3.25;;;4.90;89.00;;;;;;5039773;28;20028;-91
2023/11/27 10:21:47;;;;;;;5.75;2.53;;;4.90;88.10;;;;;;5056494;28;20472;-90
2023/11/27 10:24:13;;;;;;;6.53;3.13;;;4.90;88.80;;;;;;5056835;28;20078;-90
2023/11/27 10:26:43;;;;;;;5.20;2.75;;;5.00;89.30;;;;;;5055716;28;20084;-91
2023/11/27 10:29:25;;;;;;;4.03;2.70;;;5.00;86.10;;;;;;5038905;28;20060;-91
2023/11/27 10:32:00;;;;;;;7.53;3.33;;;5.10;87.80;;;;;;5059114;28;20402;-90
2023/11/27 10:34:38;;;;;;;4.65;2.95;;;5.00;85.60;;;;;;5058118;28;20040;-91
2023/11/27 10:37:07;;;;;;;4.28;3.40;;;5.10;87.10;;;;;;5040924;28;20074;-92
2023/11/27 10:39:36;;;;;;;4.78;3.47;;;5.10;87.10;;;;;;5039762;28;20044;-93
2023/11/27 10:42:03;;;;;;;4.30;3.38;;;5.10;88.60;;;;;;5039799;28;20032;-91
2023/11/27 10:44:40;;;;;;;4.20;3.15;;;5.10;87.80;;;;;;5027650;28;20029;-91
2023/11/27 10:47:07;;;;;;;7.43;2.97;;;5.10;83.20;;;;;;5051476;28;20035;-91
2023/11/27 10:49:38;;;;;;;3.80;3.35;;;5.20;83.20;;;;;;5059335;28;20025;-91
2023/11/27 10:52:06;;;;;;;3.83;2.90;;;5.20;83.50;;;;;;5042843;28;20047;-92
2023/11/27 10:54:34;;;;;;;3.53;2.47;;;5.20;85.80;;;;;;5041715;28;20029;-90
2023/11/27 10:57:04;;;;;;;3.22;2.28;;;5.30;83.40;;;;;;5042215;28;20021;-92
2023/11/27 10:59:33;;;;;;;5.63;2.75;;;5.30;84.30;;;;;;5041386;28;20112;-92
2023/11/27 11:02:04;;;;;;;8.05;3.13;;;5.30;84.50;;;;;;5058178;28;20044;-92
2023/11/27 11:04:58;;;;;;;3.25;2.80;;;5.30;83.20;;;;;;5041781;28;20479;-92
2023/11/27 11:07:32;;;;;;;;;;;5.30;83.40;;;;;;5039957;28;20570;-91
2023/11/27 11:09:59;;;;;;;5.43;2.88;;;5.40;82.70;;;;;;5036264;28;19905;-92
2023/11/27 11:12:27;;;;;;;5.15;2.92;;;5.30;83.70;;;;;;5060394;28;20048;-92
2023/11/27 11:14:57;;;;;;;3.38;3.08;;;5.30;83.10;;;;;;5039485;28;20036;-92
2023/11/27 11:17:59;;;;;;;5.40;3.88;;;5.40;84.10;;;;;;5058988;28;20021;-91
2023/11/27 11:20:49;;;;;;;4.25;3.13;;;5.30;83.20;;;;;;5043288;28;20029;-91
2023/11/27 11:23:48;;;;;;;8.70;3.78;;;5.40;83.10;;;;;;5039414;28;20044;-91
2023/11/27 11:26:33;;;;;;;4.90;3.30;;;5.40;77.10;;;;;;5038939;28;20029;-90
2023/11/27 11:29:14;;;;;;;2.63;2.13;;;5.40;77.10;;;;;;5057808;28;20052;-92
2023/11/27 11:31:57;;;;;;;2.70;2.47;;;5.50;75.00;;;;;;5039853;28;20029;-91
2023/11/27 11:34:29;;;;;;;6.38;3.83;;;5.50;71.10;;;;;;5059120;28;20049;-92
2023/11/27 11:36:59;;;;;;;3.03;1.75;;;5.60;75.20;;;;;;5041329;28;20418;-92
2023/11/27 11:39:25;;;;;;;2.88;1.55;;;5.60;75.80;;;;;;5058765;28;20032;-91
2023/11/27 11:42:04;;;;;;;5.13;1.80;;;5.50;73.10;;;;;;5057260;28;20029;-90
2023/11/27 11:44:34;;;;;;;2.92;2.03;;;5.60;72.90;;;;;;5038104;28;20437;-92
2023/11/27 11:47:06;;;;;;;4.10;1.90;;;5.50;72.00;;;;;;5038463;28;20025;-92
2023/11/27 11:49:35;;;;;;;4.88;2.08;;;5.50;72.20;;;;;;5038935;28;20036;-92
2023/11/27 11:52:08;;;;;;;4.28;2.38;;;5.40;73.90;;;;;;5057215;28;20025;-91
2023/11/27 11:54:41;;;;;;;3.65;2.17;;;5.40;76.20;;;;;;5055635;28;20473;-90
2023/11/27 11:57:14;;;;;;;3.45;2.17;;;5.30;78.10;;;;;;5056579;28;20071;-91
2023/11/27 11:59:48;;;;;;;1.88;1.77;;;5.20;79.20;;;;;;5054158;28;20025;-92
2023/11/27 12:02:18;;;;;;;3.42;2.70;;;5.10;79.70;;;;;;5057038;28;20057;-91
2023/11/27 12:04:44;;;;;;;4.05;1.90;;;5.00;82.30;;;;;;5038185;28;20029;-90
2023/11/27 12:07:13;;;;;;;2.45;2.17;;;4.90;82.90;;;;;;5038688;28;20101;-92
2023/11/27 12:09:41;;;;;;;1.95;1.67;;;4.90;83.10;;;;;;5054813;28;20094;-91
2023/11/27 12:12:27;;;;;;;2.15;2.05;;;4.90;83.40;;;;;;5055622;28;20530;-92
2023/11/27 12:14:54;;;;;;;2.45;1.70;;;4.90;83.60;;;;;;5056035;28;20083;-93
2023/11/27 12:17:21;;;;;;;5.30;2.05;;;4.90;84.80;;;;;;5055571;28;20021;-92
2023/11/27 12:19:50;;;;;;;3.92;2.03;;;4.80;85.70;;;;;;5056793;28;20491;-90
2023/11/27 12:22:19;;;;;;;3.42;2.60;;;4.70;87.10;;;;;;5037926;28;20001;-91
2023/11/27 12:24:47;;;;;;;3.97;2.80;;;4.60;88.60;;;;;;5056258;28;20088;-91
2023/11/27 12:27:13;;;;;;;4.60;2.55;;;4.60;89.00;;;;;;5037244;28;20380;-90
2023/11/27 12:29:48;;;;;;;4.30;2.97;;;4.60;90.80;;;;;;5055714;28;20094;-92
2023/11/27 12:32:15;;;;;;;3.42;2.40;;;4.60;90.80;;;;;;5056876;28;20024;-92
2023/11/27 12:34:41;;;;;;;5.88;2.70;;;4.60;92.50;;;;;;5038861;28;20032;-91
2023/11/27 12:37:14;;;;;;;3.33;2.30;;;4.60;90.80;;;;;;5041948;28;20029;-93
2023/11/27 12:39:40;;;;;;;4.32;2.25;;;4.50;92.70;;;;;;5041881;28;20484;-91
2023/11/27 12:42:12;;;;;;;4.50;2.83;;;4.50;92.50;;;;;;5060384;28;20017;-92
2023/11/27 12:44:38;;;;;;;3.72;3.42;;;4.50;92.60;;;;;;5042016;28;20025;-91
2023/11/27 12:47:26;;;;;;;5.18;2.83;;;4.50;94.40;;;;;;5063436;28;20052;-91
2023/11/27 12:49:53;;;;;;;3.08;2.65;;;4.40;95.50;;;;;;5060346;28;20068;-93
2023/11/27 12:52:23;;;;;;;4.90;3.20;;;4.40;96.00;;;;;;5043533;28;20033;-93
2023/11/27 12:54:54;;;;;;;5.47;4.05;;;4.30;97.70;;;;;;5056979;28;20075;-94
2023/11/27 12:57:23;;;;;;;3.78;2.50;;;4.20;97.10;;;;;;5060023;28;20029;-91
2023/11/27 12:59:52;;;;;;;4.13;2.92;;;4.20;98.60;;;;;;5060868;28;20017;-93
2023/11/27 13:02:25;;;;;;;4.07;2.45;;;4.10;99.70;;;;;;5039655;28;20097;-90